sensor_id;sensor_type;location;lat;lon;timestamp;pressure;altitude;pressure_sealevel;temperature;humidity
64632;BME280;58358;50.936;0.246;2023-01-10T00:00:33;100937.47;;;4.45;65.32
64632;BME280;58358;50.936;0.246;2023-01-10T00:02:58;100940.26;;;4.82;64.53
64632;BME280;58358;50.936;0.246;2023-01-10T00:05:23;100951.55;;;3.14;68.21
64632;BME280;58358;50.936;0.246;2023-01-10T00:07:48;100956.94;;;3.40;68.28
64632;BME280;58358;50.936;0.246;2023-01-10T00:10:14;100956.78;;;3.41;69.45
64632;BME280;58358;50.936;0.246;2023-01-10T00:12:39;100958.59;;;3.52;66.64
64632;BME280;58358;50.936;0.246;2023-01-10T00:15:05;100956.68;;;3.04;69.03
64632;BME280;58358;50.936;0.246;2023-01-10T00:17:29;100958.60;;;3.49;67.45
64632;BME280;58358;50.936;0.246;2023-01-10T00:19:54;100955.60;;;4.30;65.24
64632;BME280;58358;50.936;0.246;2023-01-10T00:22:19;100960.82;;;4.56;64.16
64632;BME280;58358;50.936;0.246;2023-01-10T00:24:44;100962.57;;;4.76;63.17
64632;BME280;58358;50.936;0.246;2023-01-10T00:27:09;100970.02;;;4.04;65.10
64632;BME280;58358;50.936;0.246;2023-01-10T00:29:34;100974.64;;;3.78;65.88
64632;BME280;58358;50.936;0.246;2023-01-10T00:32:00;100976.01;;;2.71;68.39
64632;BME280;58358;50.936;0.246;2023-01-10T00:34:25;100975.77;;;3.93;65.44
64632;BME280;58358;50.936;0.246;2023-01-10T00:36:50;100973.82;;;3.53;65.78
64632;BME280;58358;50.936;0.246;2023-01-10T00:39:16;100972.20;;;3.85;65.58
64632;BME280;58358;50.936;0.246;2023-01-10T00:41:40;100969.72;;;4.65;62.72
64632;BME280;58358;50.936;0.246;2023-01-10T00:44:06;100974.00;;;3.90;65.63
64632;BME280;58358;50.936;0.246;2023-01-10T00:46:31;100969.53;;;2.77;66.21
64632;BME280;58358;50.936;0.246;2023-01-10T00:48:56;100981.75;;;2.69;68.36
64632;BME280;58358;50.936;0.246;2023-01-10T00:51:21;100989.26;;;3.91;64.30
64632;BME280;58358;50.936;0.246;2023-01-10T00:53:46;100988.88;;;3.72;66.39
64632;BME280;58358;50.936;0.246;2023-01-10T00:56:11;100989.14;;;4.00;65.32
64632;BME280;58358;50.936;0.246;2023-01-10T00:58:36;100985.65;;;2.47;66.71
64632;BME280;58358;50.936;0.246;2023-01-10T01:01:02;100993.79;;;3.63;65.36
64632;BME280;58358;50.936;0.246;2023-01-10T01:03:27;100995.11;;;2.57;68.60
64632;BME280;58358;50.936;0.246;2023-01-10T01:05:52;101005.80;;;3.09;68.08
64632;BME280;58358;50.936;0.246;2023-01-10T01:08:17;101009.90;;;3.09;67.83
64632;BME280;58358;50.936;0.246;2023-01-10T01:10:42;101019.00;;;4.15;65.14
64632;BME280;58358;50.936;0.246;2023-01-10T01:13:09;101018.11;;;3.64;65.97
64632;BME280;58358;50.936;0.246;2023-01-10T01:15:33;101026.41;;;1.19;70.12
64632;BME280;58358;50.936;0.246;2023-01-10T01:17:57;101022.79;;;2.72;69.91
64632;BME280;58358;50.936;0.246;2023-01-10T01:20:22;101016.52;;;2.89;67.94
64632;BME280;58358;50.936;0.246;2023-01-10T01:22:47;101015.43;;;2.93;66.39
64632;BME280;58358;50.936;0.246;2023-01-10T01:25:13;101018.23;;;1.79;70.03
64632;BME280;58358;50.936;0.246;2023-01-10T01:27:38;101014.26;;;0.50;74.29
64632;BME280;58358;50.936;0.246;2023-01-10T01:30:04;101009.43;;;2.20;68.56
64632;BME280;58358;50.936;0.246;2023-01-10T01:32:29;101021.05;;;1.17;73.46
64632;BME280;58358;50.936;0.246;2023-01-10T01:34:54;101018.12;;;2.94;68.55
64632;BME280;58358;50.936;0.246;2023-01-10T01:37:19;101017.07;;;3.47;66.14
64632;BME280;58358;50.936;0.246;2023-01-10T01:39:45;101031.95;;;1.40;71.32
64632;BME280;58358;50.936;0.246;2023-01-10T01:42:20;101038.65;;;2.98;68.10
64632;BME280;58358;50.936;0.246;2023-01-10T01:44:38;101047.38;;;4.10;62.97
64632;BME280;58358;50.936;0.246;2023-01-10T01:47:06;101047.05;;;3.73;63.56
64632;BME280;58358;50.936;0.246;2023-01-10T01:49:27;101048.33;;;3.62;65.14
64632;BME280;58358;50.936;0.246;2023-01-10T01:51:57;101051.67;;;2.65;68.13
64632;BME280;58358;50.936;0.246;2023-01-10T01:54:17;101052.08;;;3.27;66.85
64632;BME280;58358;50.936;0.246;2023-01-10T01:56:44;101061.29;;;2.55;69.66
64632;BME280;58358;50.936;0.246;2023-01-10T01:59:10;101065.63;;;2.21;72.22
64632;BME280;58358;50.936;0.246;2023-01-10T02:01:32;101060.85;;;1.10;74.60
64632;BME280;58358;50.936;0.246;2023-01-10T02:04:02;101064.08;;;1.77;74.35
64632;BME280;58358;50.936;0.246;2023-01-10T02:06:23;101052.62;;;1.56;75.53
64632;BME280;58358;50.936;0.246;2023-01-10T02:08:53;101045.40;;;1.31;76.56
64632;BME280;58358;50.936;0.246;2023-01-10T02:11:12;101052.71;;;0.47;76.93
64632;BME280;58358;50.936;0.246;2023-01-10T02:13:40;101050.62;;;1.53;74.08
64632;BME280;58358;50.936;0.246;2023-01-10T02:16:03;101058.26;;;1.88;73.62
64632;BME280;58358;50.936;0.246;2023-01-10T02:18:28;101062.67;;;2.99;71.40
64632;BME280;58358;50.936;0.246;2023-01-10T02:21:06;101059.68;;;2.84;69.89
64632;BME280;58358;50.936;0.246;2023-01-10T02:30:50;101068.92;;;3.62;66.75
64632;BME280;58358;50.936;0.246;2023-01-10T02:33:06;101063.19;;;3.27;68.90
64632;BME280;58358;50.936;0.246;2023-01-10T02:35:47;101055.16;;;2.18;70.80
64632;BME280;58358;50.936;0.246;2023-01-10T02:37:58;101054.67;;;2.49;69.05
64632;BME280;58358;50.936;0.246;2023-01-10T02:40:21;101055.93;;;1.53;70.42
64632;BME280;58358;50.936;0.246;2023-01-10T02:42:46;101052.21;;;0.78;73.27
64632;BME280;58358;50.936;0.246;2023-01-10T02:45:13;101052.76;;;1.85;72.33
64632;BME280;58358;50.936;0.246;2023-01-10T02:47:35;101047.81;;;2.51;71.15
64632;BME280;58358;50.936;0.246;2023-01-10T02:52:28;101049.41;;;3.36;68.76
64632;BME280;58358;50.936;0.246;2023-01-10T02:54:50;101048.49;;;3.57;68.46
64632;BME280;58358;50.936;0.246;2023-01-10T02:57:26;101046.17;;;2.06;72.64
64632;BME280;58358;50.936;0.246;2023-01-10T02:59:55;101039.34;;;2.23;74.09
64632;BME280;58358;50.936;0.246;2023-01-10T03:02:13;101034.45;;;1.60;76.92
64632;BME280;58358;50.936;0.246;2023-01-10T03:04:38;101028.28;;;0.99;80.45
64632;BME280;58358;50.936;0.246;2023-01-10T03:07:02;101019.90;;;3.02;74.33
64632;BME280;58358;50.936;0.246;2023-01-10T03:09:26;101018.14;;;3.34;74.23
64632;BME280;58358;50.936;0.246;2023-01-10T03:11:46;101026.44;;;2.63;75.86
64632;BME280;58358;50.936;0.246;2023-01-10T03:14:17;101031.32;;;3.76;71.81
64632;BME280;58358;50.936;0.246;2023-01-10T03:16:39;101029.10;;;3.66;72.21
64632;BME280;58358;50.936;0.246;2023-01-10T03:19:05;101034.60;;;4.37;68.51
64632;BME280;58358;50.936;0.246;2023-01-10T03:21:29;101037.03;;;4.57;68.44
64632;BME280;58358;50.936;0.246;2023-01-10T03:24:00;101039.27;;;4.17;69.22
64632;BME280;58358;50.936;0.246;2023-01-10T03:26:25;101035.28;;;4.24;69.23
64632;BME280;58358;50.936;0.246;2023-01-10T03:28:50;101025.86;;;4.50;68.39
64632;BME280;58358;50.936;0.246;2023-01-10T03:31:15;101008.42;;;3.01;71.30
64632;BME280;58358;50.936;0.246;2023-01-10T03:33:36;101009.91;;;3.69;70.30
64632;BME280;58358;50.936;0.246;2023-01-10T03:36:11;101006.11;;;2.99;72.37
64632;BME280;58358;50.936;0.246;2023-01-10T03:38:33;101011.27;;;4.05;69.22
64632;BME280;58358;50.936;0.246;2023-01-10T03:40:56;101010.41;;;4.18;68.09
64632;BME280;58358;50.936;0.246;2023-01-10T03:43:24;101014.15;;;4.56;67.12
64632;BME280;58358;50.936;0.246;2023-01-10T03:45:50;101014.35;;;4.82;67.30
64632;BME280;58358;50.936;0.246;2023-01-10T03:48:10;101017.57;;;3.80;68.95
64632;BME280;58358;50.936;0.246;2023-01-10T03:50:36;101011.73;;;4.80;67.15
64632;BME280;58358;50.936;0.246;2023-01-10T03:53:00;101009.25;;;4.88;66.62
64632;BME280;58358;50.936;0.246;2023-01-10T03:55:27;100999.45;;;4.19;67.96
64632;BME280;58358;50.936;0.246;2023-01-10T03:57:51;100998.16;;;5.36;66.41
64632;BME280;58358;50.936;0.246;2023-01-10T04:00:18;100997.30;;;5.34;65.37
64632;BME280;58358;50.936;0.246;2023-01-10T04:02:43;100994.69;;;5.23;65.64
64632;BME280;58358;50.936;0.246;2023-01-10T04:05:09;100988.76;;;5.52;64.90
64632;BME280;58358;50.936;0.246;2023-01-10T04:07:34;100983.56;;;5.37;64.44
64632;BME280;58358;50.936;0.246;2023-01-10T04:09:59;100984.87;;;5.12;65.48
64632;BME280;58358;50.936;0.246;2023-01-10T04:12:24;100983.65;;;5.41;64.46
64632;BME280;58358;50.936;0.246;2023-01-10T04:14:50;100985.04;;;5.75;63.06
64632;BME280;58358;50.936;0.246;2023-01-10T04:17:17;100990.47;;;5.72;63.64
64632;BME280;58358;50.936;0.246;2023-01-10T04:19:42;100995.10;;;5.62;63.64
64632;BME280;58358;50.936;0.246;2023-01-10T04:22:07;100997.42;;;6.07;62.59
64632;BME280;58358;50.936;0.246;2023-01-10T04:24:32;100994.21;;;5.58;62.66
64632;BME280;58358;50.936;0.246;2023-01-10T04:26:58;100991.27;;;5.84;62.72
64632;BME280;58358;50.936;0.246;2023-01-10T04:29:23;100982.53;;;5.71;63.10
64632;BME280;58358;50.936;0.246;2023-01-10T04:31:48;100982.03;;;4.40;66.39
64632;BME280;58358;50.936;0.246;2023-01-10T04:34:15;100975.68;;;4.67;64.98
64632;BME280;58358;50.936;0.246;2023-01-10T04:36:39;100980.47;;;4.53;64.66
64632;BME280;58358;50.936;0.246;2023-01-10T04:39:05;100975.72;;;4.85;64.02
64632;BME280;58358;50.936;0.246;2023-01-10T04:41:35;100971.58;;;4.98;62.67
64632;BME280;58358;50.936;0.246;2023-01-10T04:43:56;100972.58;;;5.24;62.72
64632;BME280;58358;50.936;0.246;2023-01-10T04:46:21;100973.42;;;5.48;62.88
64632;BME280;58358;50.936;0.246;2023-01-10T04:48:47;100972.73;;;4.68;64.14
64632;BME280;58358;50.936;0.246;2023-01-10T04:51:12;100978.14;;;3.80;66.66
64632;BME280;58358;50.936;0.246;2023-01-10T04:53:38;100975.83;;;4.49;63.93
64632;BME280;58358;50.936;0.246;2023-01-10T04:56:04;100970.76;;;4.75;62.78
64632;BME280;58358;50.936;0.246;2023-01-10T04:58:31;100965.01;;;4.71;62.84
64632;BME280;58358;50.936;0.246;2023-01-10T05:00:54;100972.08;;;4.41;64.87
64632;BME280;58358;50.936;0.246;2023-01-10T05:03:19;100970.26;;;4.29;64.35
64632;BME280;58358;50.936;0.246;2023-01-10T05:05:44;100966.21;;;4.54;63.41
64632;BME280;58358;50.936;0.246;2023-01-10T05:08:10;100971.04;;;3.63;65.59
64632;BME280;58358;50.936;0.246;2023-01-10T05:10:35;100966.86;;;4.50;63.95
64632;BME280;58358;50.936;0.246;2023-01-10T05:13:01;100970.74;;;4.88;63.84
64632;BME280;58358;50.936;0.246;2023-01-10T05:15:26;100968.37;;;4.38;65.44
64632;BME280;58358;50.936;0.246;2023-01-10T05:17:57;100961.86;;;5.20;62.60
64632;BME280;58358;50.936;0.246;2023-01-10T05:20:17;100957.96;;;5.63;61.88
64632;BME280;58358;50.936;0.246;2023-01-10T05:22:43;100957.76;;;5.34;62.45
64632;BME280;58358;50.936;0.246;2023-01-10T05:25:09;100955.75;;;5.51;62.33
64632;BME280;58358;50.936;0.246;2023-01-10T05:27:34;100955.90;;;4.33;63.28
64632;BME280;58358;50.936;0.246;2023-01-10T05:30:00;100953.52;;;5.17;62.40
64632;BME280;58358;50.936;0.246;2023-01-10T05:32:27;100953.88;;;5.46;61.78
64632;BME280;58358;50.936;0.246;2023-01-10T05:34:51;100955.62;;;5.52;62.15
64632;BME280;58358;50.936;0.246;2023-01-10T05:37:16;100958.83;;;5.48;63.26
64632;BME280;58358;50.936;0.246;2023-01-10T05:39:42;100965.86;;;5.32;63.44
64632;BME280;58358;50.936;0.246;2023-01-10T05:42:07;100961.66;;;5.74;62.06
64632;BME280;58358;50.936;0.246;2023-01-10T05:44:32;100958.36;;;2.24;68.50
64632;BME280;58358;50.936;0.246;2023-01-10T05:46:58;100952.89;;;5.39;64.16
64632;BME280;58358;50.936;0.246;2023-01-10T05:49:23;100946.00;;;5.38;63.63
64632;BME280;58358;50.936;0.246;2023-01-10T05:51:49;100947.71;;;4.26;66.35
64632;BME280;58358;50.936;0.246;2023-01-10T05:54:15;100944.48;;;5.57;63.25
64632;BME280;58358;50.936;0.246;2023-01-10T05:56:40;100944.51;;;5.35;63.33
64632;BME280;58358;50.936;0.246;2023-01-10T05:59:06;100938.14;;;6.03;61.90
64632;BME280;58358;50.936;0.246;2023-01-10T06:01:31;100938.69;;;5.82;61.78
64632;BME280;58358;50.936;0.246;2023-01-10T06:03:56;100933.99;;;4.90;64.00
64632;BME280;58358;50.936;0.246;2023-01-10T06:06:22;100931.52;;;3.56;67.19
64632;BME280;58358;50.936;0.246;2023-01-10T06:08:47;100925.34;;;2.95;71.24
64632;BME280;58358;50.936;0.246;2023-01-10T06:11:13;100917.32;;;4.29;66.48
64632;BME280;58358;50.936;0.246;2023-01-10T06:13:38;100909.55;;;4.00;68.57
64632;BME280;58358;50.936;0.246;2023-01-10T06:16:04;100905.95;;;4.50;67.18
64632;BME280;58358;50.936;0.246;2023-01-10T06:18:29;100905.44;;;4.27;66.77
64632;BME280;58358;50.936;0.246;2023-01-10T06:20:54;100910.73;;;5.68;63.89
64632;BME280;58358;50.936;0.246;2023-01-10T06:23:19;100907.54;;;5.42;65.42
64632;BME280;58358;50.936;0.246;2023-01-10T06:25:44;100902.65;;;4.53;66.76
64632;BME280;58358;50.936;0.246;2023-01-10T06:28:11;100897.99;;;4.91;68.77
64632;BME280;58358;50.936;0.246;2023-01-10T06:30:35;100899.42;;;2.57;72.15
64632;BME280;58358;50.936;0.246;2023-01-10T06:33:01;100898.65;;;3.14;73.44
64632;BME280;58358;50.936;0.246;2023-01-10T06:35:27;100893.00;;;4.84;68.91
64632;BME280;58358;50.936;0.246;2023-01-10T06:37:52;100891.00;;;5.05;68.09
64632;BME280;58358;50.936;0.246;2023-01-10T06:40:18;100877.49;;;4.88;68.54
64632;BME280;58358;50.936;0.246;2023-01-10T06:42:43;100878.50;;;3.33;71.38
64632;BME280;58358;50.936;0.246;2023-01-10T06:45:10;100870.26;;;4.18;74.10
64632;BME280;58358;50.936;0.246;2023-01-10T06:47:35;100879.90;;;4.35;75.60
64632;BME280;58358;50.936;0.246;2023-01-10T06:50:00;100878.04;;;3.67;88.74
64632;BME280;58358;50.936;0.246;2023-01-10T06:52:26;100869.80;;;4.70;87.43
64632;BME280;58358;50.936;0.246;2023-01-10T06:54:52;100861.64;;;4.94;90.04
64632;BME280;58358;50.936;0.246;2023-01-10T06:57:18;100872.20;;;3.94;95.59
64632;BME280;58358;50.936;0.246;2023-01-10T06:59:43;100861.55;;;5.18;92.80
64632;BME280;58358;50.936;0.246;2023-01-10T07:02:10;100869.20;;;5.18;91.53
64632;BME280;58358;50.936;0.246;2023-01-10T07:04:34;100856.21;;;5.84;91.15
64632;BME280;58358;50.936;0.246;2023-01-10T07:07:00;100860.84;;;4.45;93.52
64632;BME280;58358;50.936;0.246;2023-01-10T07:09:25;100858.84;;;5.59;92.15
64632;BME280;58358;50.936;0.246;2023-01-10T07:11:51;100862.62;;;5.63;92.89
64632;BME280;58358;50.936;0.246;2023-01-10T07:14:16;100852.30;;;4.68;96.46
64632;BME280;58358;50.936;0.246;2023-01-10T07:16:41;100844.22;;;4.64;97.06
64632;BME280;58358;50.936;0.246;2023-01-10T07:19:06;100848.16;;;4.58;100.00
64632;BME280;58358;50.936;0.246;2023-01-10T07:21:31;100841.09;;;4.67;98.93
64632;BME280;58358;50.936;0.246;2023-01-10T07:23:57;100841.09;;;4.49;100.00
64632;BME280;58358;50.936;0.246;2023-01-10T07:26:22;100838.25;;;4.38;100.00
64632;BME280;58358;50.936;0.246;2023-01-10T07:28:49;100840.83;;;5.38;98.23
64632;BME280;58358;50.936;0.246;2023-01-10T07:31:14;100848.44;;;4.71;97.86
64632;BME280;58358;50.936;0.246;2023-01-10T07:33:40;100841.02;;;3.97;100.00
64632;BME280;58358;50.936;0.246;2023-01-10T07:36:06;100844.63;;;4.18;100.00
64632;BME280;58358;50.936;0.246;2023-01-10T07:38:31;100845.84;;;4.13;100.00
64632;BME280;58358;50.936;0.246;2023-01-10T07:40:56;100845.19;;;4.39;100.00
64632;BME280;58358;50.936;0.246;2023-01-10T07:43:22;100847.74;;;4.38;100.00
64632;BME280;58358;50.936;0.246;2023-01-10T07:45:48;100849.34;;;4.25;100.00
64632;BME280;58358;50.936;0.246;2023-01-10T07:48:13;100840.20;;;4.38;100.00
64632;BME280;58358;50.936;0.246;2023-01-10T07:50:38;100836.04;;;4.46;100.00
64632;BME280;58358;50.936;0.246;2023-01-10T07:53:06;100837.85;;;4.31;100.00
64632;BME280;58358;50.936;0.246;2023-01-10T07:55:30;100826.21;;;4.32;99.49
64632;BME280;58358;50.936;0.246;2023-01-10T07:57:55;100826.08;;;4.57;97.27
64632;BME280;58358;50.936;0.246;2023-01-10T08:00:20;100820.72;;;4.16;96.12
64632;BME280;58358;50.936;0.246;2023-01-10T08:02:46;100818.71;;;4.84;95.45
64632;BME280;58358;50.936;0.246;2023-01-10T08:05:11;100814.34;;;3.92;98.66
64632;BME280;58358;50.936;0.246;2023-01-10T08:07:37;100818.99;;;4.46;96.35
64632;BME280;58358;50.936;0.246;2023-01-10T08:10:03;100815.27;;;4.68;95.87
64632;BME280;58358;50.936;0.246;2023-01-10T08:12:29;100811.66;;;4.54;96.25
64632;BME280;58358;50.936;0.246;2023-01-10T08:14:54;100805.05;;;4.48;96.93
64632;BME280;58358;50.936;0.246;2023-01-10T08:17:20;100807.42;;;4.97;93.99
64632;BME280;58358;50.936;0.246;2023-01-10T08:19:46;100803.33;;;4.03;99.37
64632;BME280;58358;50.936;0.246;2023-01-10T08:22:12;100798.78;;;3.81;100.00
64632;BME280;58358;50.936;0.246;2023-01-10T08:24:37;100798.22;;;4.12;100.00
64632;BME280;58358;50.936;0.246;2023-01-10T08:27:03;100794.69;;;3.90;100.00
64632;BME280;58358;50.936;0.246;2023-01-10T08:29:30;100790.51;;;3.08;100.00
64632;BME280;58358;50.936;0.246;2023-01-10T08:31:55;100784.73;;;4.32;100.00
64632;BME280;58358;50.936;0.246;2023-01-10T08:34:21;100790.20;;;4.29;99.69
64632;BME280;58358;50.936;0.246;2023-01-10T08:36:49;100783.74;;;4.42;98.00
64632;BME280;58358;50.936;0.246;2023-01-10T08:39:12;100790.50;;;4.59;97.88
64632;BME280;58358;50.936;0.246;2023-01-10T08:41:38;100782.30;;;3.68;100.00
64632;BME280;58358;50.936;0.246;2023-01-10T08:44:04;100780.46;;;4.01;100.00
64632;BME280;58358;50.936;0.246;2023-01-10T08:46:30;100774.33;;;4.52;100.00
64632;BME280;58358;50.936;0.246;2023-01-10T08:48:55;100763.21;;;3.91;100.00
64632;BME280;58358;50.936;0.246;2023-01-10T08:51:21;100763.91;;;2.95;100.00
64632;BME280;58358;50.936;0.246;2023-01-10T08:53:47;100753.40;;;3.87;100.00
64632;BME280;58358;50.936;0.246;2023-01-10T08:56:13;100745.62;;;4.13;100.00
64632;BME280;58358;50.936;0.246;2023-01-10T08:58:38;100754.31;;;3.70;100.00
64632;BME280;58358;50.936;0.246;2023-01-10T09:01:05;100742.47;;;3.57;100.00
64632;BME280;58358;50.936;0.246;2023-01-10T09:03:30;100746.31;;;3.66;100.00
64632;BME280;58358;50.936;0.246;2023-01-10T09:05:57;100734.97;;;3.84;100.00
64632;BME280;58358;50.936;0.246;2023-01-10T09:08:21;100735.72;;;4.61;100.00
64632;BME280;58358;50.936;0.246;2023-01-10T09:10:47;100730.35;;;4.28;100.00
64632;BME280;58358;50.936;0.246;2023-01-10T09:13:12;100731.17;;;3.11;100.00
64632;BME280;58358;50.936;0.246;2023-01-10T09:15:38;100721.36;;;3.69;100.00
64632;BME280;58358;50.936;0.246;2023-01-10T09:18:05;100716.88;;;3.92;100.00
64632;BME280;58358;50.936;0.246;2023-01-10T09:20:31;100713.25;;;3.62;100.00
64632;BME280;58358;50.936;0.246;2023-01-10T09:22:55;100708.13;;;3.80;100.00
64632;BME280;58358;50.936;0.246;2023-01-10T09:25:21;100707.16;;;2.96;100.00
64632;BME280;58358;50.936;0.246;2023-01-10T09:27:47;100696.46;;;3.84;100.00
64632;BME280;58358;50.936;0.246;2023-01-10T09:30:13;100702.23;;;4.31;100.00
64632;BME280;58358;50.936;0.246;2023-01-10T09:32:38;100697.53;;;4.65;100.00
64632;BME280;58358;50.936;0.246;2023-01-10T09:35:05;100697.45;;;3.81;100.00
64632;BME280;58358;50.936;0.246;2023-01-10T09:37:31;100696.06;;;3.34;100.00
64632;BME280;58358;50.936;0.246;2023-01-10T09:39:56;100690.82;;;3.66;100.00
64632;BME280;58358;50.936;0.246;2023-01-10T09:42:36;100695.61;;;4.29;100.00
64632;BME280;58358;50.936;0.246;2023-01-10T09:44:56;100684.75;;;3.75;100.00
64632;BME280;58358;50.936;0.246;2023-01-10T09:47:20;100687.40;;;3.40;100.00
64632;BME280;58358;50.936;0.246;2023-01-10T09:49:46;100680.24;;;4.14;100.00
64632;BME280;58358;50.936;0.246;2023-01-10T09:52:14;100680.48;;;3.74;100.00
64632;BME280;58358;50.936;0.246;2023-01-10T09:54:35;100667.81;;;4.05;100.00
64632;BME280;58358;50.936;0.246;2023-01-10T09:56:59;100663.57;;;3.57;100.00
64632;BME280;58358;50.936;0.246;2023-01-10T09:59:24;100663.22;;;4.02;100.00
64632;BME280;58358;50.936;0.246;2023-01-10T10:01:56;100655.56;;;4.02;100.00
64632;BME280;58358;50.936;0.246;2023-01-10T10:04:21;100656.03;;;4.34;100.00
64632;BME280;58358;50.936;0.246;2023-01-10T10:06:40;100657.51;;;4.25;100.00
64632;BME280;58358;50.936;0.246;2023-01-10T10:09:07;100648.60;;;3.90;100.00
64632;BME280;58358;50.936;0.246;2023-01-10T10:11:44;100647.25;;;4.04;100.00
64632;BME280;58358;50.936;0.246;2023-01-10T10:14:02;100645.99;;;4.07;100.00
64632;BME280;58358;50.936;0.246;2023-01-10T10:16:31;100642.88;;;4.25;100.00
64632;BME280;58358;50.936;0.246;2023-01-10T10:18:55;100639.90;;;4.36;100.00
64632;BME280;58358;50.936;0.246;2023-01-10T10:21:22;100635.90;;;3.85;100.00
64632;BME280;58358;50.936;0.246;2023-01-10T10:23:51;100631.60;;;4.04;100.00
64632;BME280;58358;50.936;0.246;2023-01-10T10:26:12;100628.00;;;4.33;100.00
64632;BME280;58358;50.936;0.246;2023-01-10T10:31:02;100622.39;;;4.56;100.00
64632;BME280;58358;50.936;0.246;2023-01-10T10:33:36;100622.91;;;4.50;100.00
64632;BME280;58358;50.936;0.246;2023-01-10T10:35:54;100601.50;;;4.10;100.00
64632;BME280;58358;50.936;0.246;2023-01-10T10:38:17;100596.60;;;4.41;100.00
64632;BME280;58358;50.936;0.246;2023-01-10T10:40:43;100587.81;;;4.07;100.00
64632;BME280;58358;50.936;0.246;2023-01-10T10:43:13;100575.33;;;4.09;100.00
64632;BME280;58358;50.936;0.246;2023-01-10T10:45:35;100562.76;;;3.96;100.00
64632;BME280;58358;50.936;0.246;2023-01-10T10:47:57;100555.68;;;4.22;100.00
64632;BME280;58358;50.936;0.246;2023-01-10T10:50:26;100547.28;;;3.68;100.00
64632;BME280;58358;50.936;0.246;2023-01-10T10:52:45;100536.72;;;4.79;100.00
64632;BME280;58358;50.936;0.246;2023-01-10T10:55:13;100532.03;;;4.46;100.00
64632;BME280;58358;50.936;0.246;2023-01-10T10:57:37;100526.40;;;4.43;100.00
64632;BME280;58358;50.936;0.246;2023-01-10T11:00:03;100516.43;;;4.43;100.00
64632;BME280;58358;50.936;0.246;2023-01-10T11:02:29;100504.61;;;4.83;100.00
64632;BME280;58358;50.936;0.246;2023-01-10T11:04:56;100495.52;;;4.55;100.00
64632;BME280;58358;50.936;0.246;2023-01-10T11:07:19;100493.87;;;4.56;100.00
64632;BME280;58358;50.936;0.246;2023-01-10T11:09:45;100488.66;;;4.98;100.00
64632;BME280;58358;50.936;0.246;2023-01-10T11:12:13;100489.77;;;4.98;100.00
64632;BME280;58358;50.936;0.246;2023-01-10T11:14:44;100488.64;;;5.79;100.00
64632;BME280;58358;50.936;0.246;2023-01-10T11:19:26;100473.37;;;5.02;100.00
64632;BME280;58358;50.936;0.246;2023-01-10T11:21:53;100469.52;;;5.24;100.00
64632;BME280;58358;50.936;0.246;2023-01-10T11:24:26;100456.33;;;4.65;100.00
64632;BME280;58358;50.936;0.246;2023-01-10T11:26:42;100447.06;;;4.89;100.00
64632;BME280;58358;50.936;0.246;2023-01-10T11:29:13;100445.74;;;4.84;100.00
64632;BME280;58358;50.936;0.246;2023-01-10T11:31:34;100434.46;;;5.08;100.00
64632;BME280;58358;50.936;0.246;2023-01-10T11:33:58;100429.24;;;5.52;100.00
64632;BME280;58358;50.936;0.246;2023-01-10T11:36:24;100425.60;;;6.12;100.00
64632;BME280;58358;50.936;0.246;2023-01-10T11:38:58;100412.30;;;4.95;100.00
64632;BME280;58358;50.936;0.246;2023-01-10T11:41:22;100410.36;;;5.94;100.00
64632;BME280;58358;50.936;0.246;2023-01-10T11:43:41;100410.06;;;5.53;100.00
64632;BME280;58358;50.936;0.246;2023-01-10T11:46:12;100408.88;;;5.36;100.00
64632;BME280;58358;50.936;0.246;2023-01-10T11:48:43;100399.11;;;6.32;100.00
64632;BME280;58358;50.936;0.246;2023-01-10T11:50:57;100396.24;;;5.81;100.00
64632;BME280;58358;50.936;0.246;2023-01-10T11:53:36;100394.40;;;5.84;100.00
64632;BME280;58358;50.936;0.246;2023-01-10T11:55:48;100382.94;;;5.83;100.00
64632;BME280;58358;50.936;0.246;2023-01-10T11:58:14;100381.42;;;5.68;100.00
64632;BME280;58358;50.936;0.246;2023-01-10T12:00:41;100379.03;;;6.43;100.00
64632;BME280;58358;50.936;0.246;2023-01-10T12:03:19;100352.73;;;5.88;100.00
64632;BME280;58358;50.936;0.246;2023-01-10T12:05:30;100359.13;;;6.52;100.00
64632;BME280;58358;50.936;0.246;2023-01-10T12:07:57;100356.39;;;6.18;100.00
64632;BME280;58358;50.936;0.246;2023-01-10T12:10:22;100349.78;;;6.47;100.00
64632;BME280;58358;50.936;0.246;2023-01-10T12:12:52;100348.76;;;5.45;100.00
64632;BME280;58358;50.936;0.246;2023-01-10T12:15:21;100346.68;;;5.85;100.00
64632;BME280;58358;50.936;0.246;2023-01-10T12:17:36;100335.47;;;5.59;100.00
64632;BME280;58358;50.936;0.246;2023-01-10T12:20:04;100340.40;;;6.30;100.00
64632;BME280;58358;50.936;0.246;2023-01-10T12:22:30;100336.52;;;6.58;100.00
64632;BME280;58358;50.936;0.246;2023-01-10T12:24:53;100337.16;;;6.52;100.00
64632;BME280;58358;50.936;0.246;2023-01-10T12:27:18;100321.29;;;6.13;100.00
64632;BME280;58358;50.936;0.246;2023-01-10T12:29:46;100310.24;;;6.22;100.00
64632;BME280;58358;50.936;0.246;2023-01-10T12:32:15;100302.73;;;6.33;100.00
64632;BME280;58358;50.936;0.246;2023-01-10T12:34:41;100302.12;;;6.03;100.00
64632;BME280;58358;50.936;0.246;2023-01-10T12:37:07;100295.49;;;6.64;100.00
64632;BME280;58358;50.936;0.246;2023-01-10T12:39:29;100292.88;;;6.97;100.00
64632;BME280;58358;50.936;0.246;2023-01-10T12:41:57;100289.08;;;7.02;100.00
64632;BME280;58358;50.936;0.246;2023-01-10T12:44:21;100277.48;;;6.73;100.00
64632;BME280;58358;50.936;0.246;2023-01-10T12:46:44;100276.59;;;6.54;100.00
64632;BME280;58358;50.936;0.246;2023-01-10T12:49:16;100280.39;;;6.88;100.00
64632;BME280;58358;50.936;0.246;2023-01-10T12:51:33;100262.13;;;6.94;100.00
64632;BME280;58358;50.936;0.246;2023-01-10T12:54:04;100271.55;;;7.02;100.00
64632;BME280;58358;50.936;0.246;2023-01-10T12:56:24;100266.21;;;7.15;100.00
64632;BME280;58358;50.936;0.246;2023-01-10T12:58:52;100259.00;;;7.04;100.00